Terminal Aerodrome Forecast
Issued by NWS Twin Cities, MN

Home | Current Version | Previous Version | Text Only | Print | Product List | Glossary Off
Versions: 1 2 3 4 5 6 7 8 9 10 11 12 13 14 15 16 17

000
FTUS43 KMPX 242326
TAFSTC
TAF
KSTC 242326Z 2500/2524 16009KT P6SM SCT040
     FM250400 16010KT P6SM VCSH SCT040 BKN090
     FM250900 15007KT P6SM VCTS SCT035 BKN090CB
     FM251200 16012KT P6SM SCT050 BKN100
     FM251500 17013G22KT P6SM SCT020 BKN035=

USA.gov is the U.S. government's official web portal to all federal, state and local government web resources and services.